sensor_id;sensor_type;location;lat;lon;timestamp;pressure;altitude;pressure_sealevel;temperature;humidity
64616;BME280;51027;42.162;24.754;2023-01-27T00:00:19;99062.91;;;1.22;100.00
64616;BME280;51027;42.162;24.754;2023-01-27T00:02:45;99068.31;;;1.04;100.00
64616;BME280;51027;42.162;24.754;2023-01-27T00:05:12;99068.22;;;1.11;100.00
64616;BME280;51027;42.162;24.754;2023-01-27T00:07:38;99071.81;;;1.00;100.00
64616;BME280;51027;42.162;24.754;2023-01-27T00:10:11;99073.31;;;1.19;100.00
64616;BME280;51027;42.162;24.754;2023-01-27T00:12:37;99099.91;;;1.38;100.00
64616;BME280;51027;42.162;24.754;2023-01-27T00:15:22;99079.06;;;1.46;100.00
64616;BME280;51027;42.162;24.754;2023-01-27T00:17:47;99090.66;;;1.17;100.00
64616;BME280;51027;42.162;24.754;2023-01-27T00:20:12;99080.06;;;1.32;100.00
64616;BME280;51027;42.162;24.754;2023-01-27T00:22:58;99075.44;;;1.59;100.00
64616;BME280;51027;42.162;24.754;2023-01-27T00:25:42;99072.09;;;1.49;100.00
64616;BME280;51027;42.162;24.754;2023-01-27T00:28:07;99059.34;;;1.31;100.00
64616;BME280;51027;42.162;24.754;2023-01-27T00:30:32;99057.66;;;1.28;100.00
64616;BME280;51027;42.162;24.754;2023-01-27T00:32:58;99047.34;;;1.22;100.00
64616;BME280;51027;42.162;24.754;2023-01-27T00:35:42;99003.50;;;1.04;100.00
64616;BME280;51027;42.162;24.754;2023-01-27T00:38:07;99025.72;;;1.25;100.00
64616;BME280;51027;42.162;24.754;2023-01-27T00:40:33;99048.22;;;1.21;100.00
64616;BME280;51027;42.162;24.754;2023-01-27T00:42:58;99045.59;;;1.26;100.00
64616;BME280;51027;42.162;24.754;2023-01-27T00:45:23;99059.19;;;1.44;100.00
64616;BME280;51027;42.162;24.754;2023-01-27T00:48:07;99054.16;;;1.34;100.00
64616;BME280;51027;42.162;24.754;2023-01-27T00:50:33;99039.44;;;1.31;100.00
64616;BME280;51027;42.162;24.754;2023-01-27T00:52:58;99052.34;;;1.37;100.00
64616;BME280;51027;42.162;24.754;2023-01-27T00:55:26;99058.31;;;1.46;100.00
64616;BME280;51027;42.162;24.754;2023-01-27T00:57:51;99016.41;;;1.08;100.00
64616;BME280;51027;42.162;24.754;2023-01-27T01:00:17;99039.28;;;1.45;100.00
64616;BME280;51027;42.162;24.754;2023-01-27T01:02:42;99024.88;;;1.23;100.00
64616;BME280;51027;42.162;24.754;2023-01-27T01:05:08;99029.06;;;1.34;100.00
64616;BME280;51027;42.162;24.754;2023-01-27T01:07:33;99016.16;;;1.28;100.00
64616;BME280;51027;42.162;24.754;2023-01-27T01:09:59;98987.94;;;1.04;100.00
64616;BME280;51027;42.162;24.754;2023-01-27T01:12:24;98979.84;;;1.28;100.00
64616;BME280;51027;42.162;24.754;2023-01-27T01:14:49;98975.88;;;1.03;100.00
64616;BME280;51027;42.162;24.754;2023-01-27T01:17:15;98937.34;;;0.74;100.00
64616;BME280;51027;42.162;24.754;2023-01-27T01:19:40;98960.56;;;0.83;100.00
64616;BME280;51027;42.162;24.754;2023-01-27T01:22:06;99018.06;;;1.14;100.00
64616;BME280;51027;42.162;24.754;2023-01-27T01:24:31;99051.53;;;1.32;100.00
64616;BME280;51027;42.162;24.754;2023-01-27T01:26:56;99046.50;;;1.20;100.00
64616;BME280;51027;42.162;24.754;2023-01-27T01:29:22;99037.81;;;1.26;100.00
64616;BME280;51027;42.162;24.754;2023-01-27T01:31:49;99044.06;;;1.08;100.00
64616;BME280;51027;42.162;24.754;2023-01-27T01:34:15;99046.81;;;0.96;100.00
64616;BME280;51027;42.162;24.754;2023-01-27T01:36:40;99038.22;;;0.92;100.00
64616;BME280;51027;42.162;24.754;2023-01-27T01:39:06;99024.94;;;1.18;100.00
64616;BME280;51027;42.162;24.754;2023-01-27T01:41:31;99011.03;;;1.22;100.00
64616;BME280;51027;42.162;24.754;2023-01-27T01:43:56;98984.47;;;1.05;100.00
64616;BME280;51027;42.162;24.754;2023-01-27T01:46:22;99005.84;;;1.25;100.00
64616;BME280;51027;42.162;24.754;2023-01-27T01:48:55;99011.63;;;1.44;100.00
64616;BME280;51027;42.162;24.754;2023-01-27T01:51:31;98981.31;;;1.48;100.00
64616;BME280;51027;42.162;24.754;2023-01-27T01:56:32;98958.09;;;1.38;100.00
64616;BME280;51027;42.162;24.754;2023-01-27T01:59:03;98952.28;;;1.20;100.00
64616;BME280;51027;42.162;24.754;2023-01-27T02:01:30;98979.66;;;1.43;100.00
64616;BME280;51027;42.162;24.754;2023-01-27T02:03:59;98975.72;;;1.75;100.00
64616;BME280;51027;42.162;24.754;2023-01-27T02:06:25;98974.88;;;1.73;100.00
64616;BME280;51027;42.162;24.754;2023-01-27T02:08:50;98987.00;;;1.71;100.00
64616;BME280;51027;42.162;24.754;2023-01-27T02:11:17;98981.78;;;1.72;100.00
64616;BME280;51027;42.162;24.754;2023-01-27T02:13:42;98960.94;;;1.79;100.00
64616;BME280;51027;42.162;24.754;2023-01-27T02:16:09;98958.09;;;1.38;100.00
64616;BME280;51027;42.162;24.754;2023-01-27T02:18:37;98963.97;;;1.50;100.00
64616;BME280;51027;42.162;24.754;2023-01-27T02:21:04;98955.97;;;1.65;100.00
64616;BME280;51027;42.162;24.754;2023-01-27T02:26:27;98930.50;;;1.31;100.00
64616;BME280;51027;42.162;24.754;2023-01-27T02:29:14;98917.31;;;1.47;100.00
64616;BME280;51027;42.162;24.754;2023-01-27T02:31:40;98922.09;;;1.15;100.00
64616;BME280;51027;42.162;24.754;2023-01-27T02:34:09;98917.44;;;1.39;100.00
64616;BME280;51027;42.162;24.754;2023-01-27T02:36:57;98898.19;;;1.52;100.00
64616;BME280;51027;42.162;24.754;2023-01-27T02:39:26;98903.59;;;1.40;100.00
64616;BME280;51027;42.162;24.754;2023-01-27T02:41:56;98908.13;;;1.26;100.00
64616;BME280;51027;42.162;24.754;2023-01-27T02:44:22;98934.44;;;1.58;100.00
64616;BME280;51027;42.162;24.754;2023-01-27T02:46:48;98919.81;;;1.54;100.00
64616;BME280;51027;42.162;24.754;2023-01-27T02:49:13;98927.75;;;1.42;100.00
64616;BME280;51027;42.162;24.754;2023-01-27T02:51:39;98931.72;;;1.67;100.00
64616;BME280;51027;42.162;24.754;2023-01-27T02:54:05;98927.97;;;1.84;100.00
64616;BME280;51027;42.162;24.754;2023-01-27T02:56:30;98898.72;;;1.76;100.00
64616;BME280;51027;42.162;24.754;2023-01-27T02:58:56;98920.69;;;2.06;100.00
64616;BME280;51027;42.162;24.754;2023-01-27T03:01:23;98930.81;;;1.68;100.00
64616;BME280;51027;42.162;24.754;2023-01-27T03:03:49;98897.16;;;1.65;100.00
64616;BME280;51027;42.162;24.754;2023-01-27T03:06:16;98885.28;;;1.49;100.00
64616;BME280;51027;42.162;24.754;2023-01-27T03:08:42;98908.31;;;1.69;100.00
64616;BME280;51027;42.162;24.754;2023-01-27T03:11:08;98904.72;;;1.78;100.00
64616;BME280;51027;42.162;24.754;2023-01-27T03:13:34;98898.66;;;1.79;100.00
64616;BME280;51027;42.162;24.754;2023-01-27T03:16:01;98856.69;;;1.54;100.00
64616;BME280;51027;42.162;24.754;2023-01-27T03:18:47;98891.44;;;1.42;100.00
64616;BME280;51027;42.162;24.754;2023-01-27T03:21:15;98878.56;;;1.37;100.00
64616;BME280;51027;42.162;24.754;2023-01-27T03:23:41;98902.72;;;1.39;100.00
64616;BME280;51027;42.162;24.754;2023-01-27T03:26:08;98913.84;;;1.48;100.00
64616;BME280;51027;42.162;24.754;2023-01-27T03:28:34;98932.84;;;1.50;100.00
64616;BME280;51027;42.162;24.754;2023-01-27T03:31:02;98932.72;;;1.57;100.00
64616;BME280;51027;42.162;24.754;2023-01-27T03:33:28;98930.00;;;1.66;100.00
64616;BME280;51027;42.162;24.754;2023-01-27T03:35:53;98916.31;;;1.57;100.00
64616;BME280;51027;42.162;24.754;2023-01-27T03:38:38;98909.25;;;1.66;100.00
64616;BME280;51027;42.162;24.754;2023-01-27T03:41:21;98903.06;;;1.72;100.00
64616;BME280;51027;42.162;24.754;2023-01-27T03:44:05;98889.22;;;1.73;100.00
64616;BME280;51027;42.162;24.754;2023-01-27T03:46:49;98913.25;;;1.86;100.00
64616;BME280;51027;42.162;24.754;2023-01-27T03:49:15;98913.41;;;1.77;100.00
64616;BME280;51027;42.162;24.754;2023-01-27T03:51:40;98909.03;;;1.79;100.00
64616;BME280;51027;42.162;24.754;2023-01-27T03:54:06;98879.00;;;1.62;100.00
64616;BME280;51027;42.162;24.754;2023-01-27T03:56:31;98916.00;;;1.77;100.00
64616;BME280;51027;42.162;24.754;2023-01-27T03:58:56;98915.00;;;1.85;100.00
64616;BME280;51027;42.162;24.754;2023-01-27T04:01:23;98913.94;;;1.95;100.00
64616;BME280;51027;42.162;24.754;2023-01-27T04:03:49;98908.56;;;2.06;100.00
64616;BME280;51027;42.162;24.754;2023-01-27T04:06:36;98914.66;;;2.03;100.00
64616;BME280;51027;42.162;24.754;2023-01-27T04:09:38;98896.63;;;1.96;100.00
64616;BME280;51027;42.162;24.754;2023-01-27T04:12:05;98884.72;;;1.83;100.00
64616;BME280;51027;42.162;24.754;2023-01-27T04:14:35;98872.22;;;1.55;100.00
64616;BME280;51027;42.162;24.754;2023-01-27T04:17:17;98897.75;;;1.80;100.00
64616;BME280;51027;42.162;24.754;2023-01-27T04:19:43;98889.78;;;1.90;100.00
64616;BME280;51027;42.162;24.754;2023-01-27T04:22:13;98900.22;;;1.89;100.00
64616;BME280;51027;42.162;24.754;2023-01-27T04:24:40;98887.84;;;2.01;100.00
64616;BME280;51027;42.162;24.754;2023-01-27T04:27:07;98865.69;;;1.82;100.00
64616;BME280;51027;42.162;24.754;2023-01-27T04:29:36;98894.13;;;1.90;100.00
64616;BME280;51027;42.162;24.754;2023-01-27T04:32:03;98891.06;;;1.66;100.00
64616;BME280;51027;42.162;24.754;2023-01-27T04:34:30;98882.97;;;1.83;100.00
64616;BME280;51027;42.162;24.754;2023-01-27T04:36:56;98863.44;;;1.62;100.00
64616;BME280;51027;42.162;24.754;2023-01-27T04:39:22;98869.22;;;1.80;100.00
64616;BME280;51027;42.162;24.754;2023-01-27T04:41:48;98872.69;;;1.79;100.00
64616;BME280;51027;42.162;24.754;2023-01-27T04:44:14;98870.84;;;1.85;100.00
64616;BME280;51027;42.162;24.754;2023-01-27T04:46:40;98870.13;;;1.77;100.00
64616;BME280;51027;42.162;24.754;2023-01-27T04:49:06;98878.50;;;1.91;100.00
64616;BME280;51027;42.162;24.754;2023-01-27T04:51:32;98881.03;;;1.97;100.00
64616;BME280;51027;42.162;24.754;2023-01-27T04:53:58;98872.97;;;2.11;100.00
64616;BME280;51027;42.162;24.754;2023-01-27T04:56:29;98882.19;;;2.27;100.00
64616;BME280;51027;42.162;24.754;2023-01-27T04:59:03;98883.22;;;2.19;100.00
64616;BME280;51027;42.162;24.754;2023-01-27T05:01:29;98879.28;;;1.98;100.00
64616;BME280;51027;42.162;24.754;2023-01-27T05:03:55;98878.03;;;1.69;100.00
64616;BME280;51027;42.162;24.754;2023-01-27T05:06:21;98859.78;;;1.76;100.00
64616;BME280;51027;42.162;24.754;2023-01-27T05:08:47;98853.59;;;1.81;100.00
64616;BME280;51027;42.162;24.754;2023-01-27T05:11:13;98878.81;;;1.73;100.00
64616;BME280;51027;42.162;24.754;2023-01-27T05:13:39;98885.97;;;1.60;100.00
64616;BME280;51027;42.162;24.754;2023-01-27T05:18:38;98887.03;;;1.99;100.00
64616;BME280;51027;42.162;24.754;2023-01-27T05:21:04;98875.19;;;1.83;100.00
64616;BME280;51027;42.162;24.754;2023-01-27T05:23:30;98917.75;;;2.25;100.00
64616;BME280;51027;42.162;24.754;2023-01-27T05:26:06;98909.13;;;2.22;100.00
64616;BME280;51027;42.162;24.754;2023-01-27T05:28:32;98922.16;;;2.20;100.00
64616;BME280;51027;42.162;24.754;2023-01-27T05:31:10;98919.31;;;2.33;100.00
64616;BME280;51027;42.162;24.754;2023-01-27T05:33:36;98912.75;;;2.13;100.00
64616;BME280;51027;42.162;24.754;2023-01-27T05:36:03;98910.16;;;2.15;100.00
64616;BME280;51027;42.162;24.754;2023-01-27T05:38:30;98910.09;;;2.18;100.00
64616;BME280;51027;42.162;24.754;2023-01-27T05:41:00;98912.53;;;2.27;100.00
64616;BME280;51027;42.162;24.754;2023-01-27T05:43:28;98911.63;;;2.28;100.00
64616;BME280;51027;42.162;24.754;2023-01-27T05:46:00;98914.88;;;2.39;100.00
64616;BME280;51027;42.162;24.754;2023-01-27T05:48:26;98886.84;;;2.10;100.00
64616;BME280;51027;42.162;24.754;2023-01-27T05:50:56;98910.66;;;2.35;100.00
64616;BME280;51027;42.162;24.754;2023-01-27T05:53:22;98902.16;;;2.24;100.00
64616;BME280;51027;42.162;24.754;2023-01-27T05:55:48;98916.31;;;2.55;100.00
64616;BME280;51027;42.162;24.754;2023-01-27T05:58:14;98912.94;;;2.50;100.00
64616;BME280;51027;42.162;24.754;2023-01-27T06:00:40;98906.84;;;2.51;100.00
64616;BME280;51027;42.162;24.754;2023-01-27T06:03:05;98907.66;;;2.53;100.00
64616;BME280;51027;42.162;24.754;2023-01-27T06:05:30;98880.72;;;2.59;100.00
64616;BME280;51027;42.162;24.754;2023-01-27T06:07:56;98888.50;;;2.16;100.00
64616;BME280;51027;42.162;24.754;2023-01-27T06:10:21;98911.13;;;2.55;100.00
64616;BME280;51027;42.162;24.754;2023-01-27T06:12:47;98897.28;;;2.53;100.00
64616;BME280;51027;42.162;24.754;2023-01-27T06:15:12;98891.56;;;2.36;100.00
64616;BME280;51027;42.162;24.754;2023-01-27T06:17:37;98873.94;;;2.50;100.00
64616;BME280;51027;42.162;24.754;2023-01-27T06:20:03;98884.09;;;2.19;100.00
64616;BME280;51027;42.162;24.754;2023-01-27T06:22:29;98887.91;;;2.45;100.00
64616;BME280;51027;42.162;24.754;2023-01-27T06:24:54;98897.41;;;2.47;100.00
64616;BME280;51027;42.162;24.754;2023-01-27T06:27:19;98891.06;;;2.60;100.00
64616;BME280;51027;42.162;24.754;2023-01-27T06:29:45;98912.25;;;2.84;100.00
64616;BME280;51027;42.162;24.754;2023-01-27T06:32:10;98910.28;;;2.97;100.00
64616;BME280;51027;42.162;24.754;2023-01-27T06:34:35;98905.38;;;2.81;100.00
64616;BME280;51027;42.162;24.754;2023-01-27T06:37:01;98912.25;;;2.84;100.00
64616;BME280;51027;42.162;24.754;2023-01-27T06:39:26;98920.19;;;2.78;100.00
64616;BME280;51027;42.162;24.754;2023-01-27T06:41:52;98907.84;;;2.89;100.00
64616;BME280;51027;42.162;24.754;2023-01-27T06:44:17;98901.44;;;2.62;100.00
64616;BME280;51027;42.162;24.754;2023-01-27T06:46:42;98909.31;;;2.59;100.00
64616;BME280;51027;42.162;24.754;2023-01-27T06:49:08;98846.97;;;2.13;100.00
64616;BME280;51027;42.162;24.754;2023-01-27T06:51:33;98896.03;;;2.73;100.00
64616;BME280;51027;42.162;24.754;2023-01-27T06:53:58;98908.41;;;2.60;100.00
64616;BME280;51027;42.162;24.754;2023-01-27T06:56:24;98901.69;;;2.92;100.00
64616;BME280;51027;42.162;24.754;2023-01-27T06:58:49;98904.06;;;2.60;100.00
64616;BME280;51027;42.162;24.754;2023-01-27T07:01:15;98881.69;;;2.53;100.00
64616;BME280;51027;42.162;24.754;2023-01-27T07:03:41;98894.59;;;2.58;100.00
64616;BME280;51027;42.162;24.754;2023-01-27T07:06:06;98900.38;;;3.12;100.00
64616;BME280;51027;42.162;24.754;2023-01-27T07:08:32;98908.06;;;3.18;100.00
64616;BME280;51027;42.162;24.754;2023-01-27T07:11:01;98908.81;;;3.24;100.00
64616;BME280;51027;42.162;24.754;2023-01-27T07:13:27;98916.59;;;3.24;100.00
64616;BME280;51027;42.162;24.754;2023-01-27T07:15:53;98898.47;;;3.21;100.00
64616;BME280;51027;42.162;24.754;2023-01-27T07:18:19;98909.41;;;3.35;100.00
64616;BME280;51027;42.162;24.754;2023-01-27T07:20:44;98916.53;;;3.28;100.00
64616;BME280;51027;42.162;24.754;2023-01-27T07:23:10;98890.41;;;2.93;100.00
64616;BME280;51027;42.162;24.754;2023-01-27T07:25:36;98918.63;;;3.11;100.00
64616;BME280;51027;42.162;24.754;2023-01-27T07:28:01;98913.91;;;4.01;100.00
64616;BME280;51027;42.162;24.754;2023-01-27T07:30:28;98908.44;;;3.40;100.00
64616;BME280;51027;42.162;24.754;2023-01-27T07:32:53;98886.09;;;2.92;100.00
64616;BME280;51027;42.162;24.754;2023-01-27T07:35:22;98913.22;;;3.20;100.00
64616;BME280;51027;42.162;24.754;2023-01-27T07:37:47;98903.91;;;3.49;100.00
64616;BME280;51027;42.162;24.754;2023-01-27T07:40:13;98917.31;;;3.67;100.00
64616;BME280;51027;42.162;24.754;2023-01-27T07:42:39;98915.41;;;3.75;100.00
64616;BME280;51027;42.162;24.754;2023-01-27T07:45:05;98902.28;;;3.80;100.00
64616;BME280;51027;42.162;24.754;2023-01-27T07:47:30;98899.53;;;3.51;100.00
64616;BME280;51027;42.162;24.754;2023-01-27T07:49:56;98903.34;;;3.34;100.00
64616;BME280;51027;42.162;24.754;2023-01-27T07:52:22;98874.84;;;3.30;100.00
64616;BME280;51027;42.162;24.754;2023-01-27T07:54:47;98903.69;;;3.21;100.00
64616;BME280;51027;42.162;24.754;2023-01-27T07:57:14;98877.94;;;3.45;100.00
64616;BME280;51027;42.162;24.754;2023-01-27T07:59:39;98891.19;;;3.72;100.00
64616;BME280;51027;42.162;24.754;2023-01-27T08:02:05;98893.75;;;3.73;100.00
64616;BME280;51027;42.162;24.754;2023-01-27T08:04:30;98906.06;;;3.67;100.00
64616;BME280;51027;42.162;24.754;2023-01-27T08:06:56;98902.78;;;3.94;100.00
64616;BME280;51027;42.162;24.754;2023-01-27T08:09:21;98898.53;;;3.55;100.00
64616;BME280;51027;42.162;24.754;2023-01-27T08:11:46;98886.00;;;3.35;100.00
64616;BME280;51027;42.162;24.754;2023-01-27T08:14:12;98886.34;;;3.20;100.00
64616;BME280;51027;42.162;24.754;2023-01-27T08:16:37;98888.78;;;3.27;100.00
64616;BME280;51027;42.162;24.754;2023-01-27T08:19:03;98902.72;;;3.25;100.00
64616;BME280;51027;42.162;24.754;2023-01-27T08:21:28;98894.44;;;3.44;100.00
64616;BME280;51027;42.162;24.754;2023-01-27T08:23:57;98895.59;;;3.70;100.00
64616;BME280;51027;42.162;24.754;2023-01-27T08:26:23;98892.91;;;3.37;100.00
64616;BME280;51027;42.162;24.754;2023-01-27T08:28:50;98884.13;;;3.41;100.00
64616;BME280;51027;42.162;24.754;2023-01-27T08:31:16;98876.13;;;3.49;100.00
64616;BME280;51027;42.162;24.754;2023-01-27T08:33:43;98869.91;;;3.55;100.00
64616;BME280;51027;42.162;24.754;2023-01-27T08:36:12;98855.53;;;3.74;100.00
64616;BME280;51027;42.162;24.754;2023-01-27T08:38:39;98855.81;;;3.63;100.00
64616;BME280;51027;42.162;24.754;2023-01-27T08:41:13;98852.44;;;3.94;100.00
64616;BME280;51027;42.162;24.754;2023-01-27T08:43:39;98850.88;;;3.88;100.00
64616;BME280;51027;42.162;24.754;2023-01-27T08:46:06;98852.63;;;3.52;100.00
64616;BME280;51027;42.162;24.754;2023-01-27T08:48:32;98855.25;;;3.51;100.00
64616;BME280;51027;42.162;24.754;2023-01-27T08:50:59;98860.16;;;3.63;100.00
64616;BME280;51027;42.162;24.754;2023-01-27T08:53:25;98862.59;;;3.70;100.00
64616;BME280;51027;42.162;24.754;2023-01-27T08:55:52;98853.56;;;3.50;100.00
64616;BME280;51027;42.162;24.754;2023-01-27T08:58:20;98858.72;;;3.51;100.00
64616;BME280;51027;42.162;24.754;2023-01-27T09:00:46;98881.75;;;3.66;100.00
64616;BME280;51027;42.162;24.754;2023-01-27T09:03:11;98876.56;;;3.31;100.00
64616;BME280;51027;42.162;24.754;2023-01-27T09:05:38;98877.84;;;3.50;100.00
64616;BME280;51027;42.162;24.754;2023-01-27T09:08:04;98875.06;;;3.56;100.00
64616;BME280;51027;42.162;24.754;2023-01-27T09:10:30;98860.03;;;3.67;100.00
64616;BME280;51027;42.162;24.754;2023-01-27T09:12:56;98871.75;;;3.85;100.00
64616;BME280;51027;42.162;24.754;2023-01-27T09:15:22;98876.25;;;3.80;100.00
64616;BME280;51027;42.162;24.754;2023-01-27T09:17:47;98862.03;;;3.92;100.00
64616;BME280;51027;42.162;24.754;2023-01-27T09:20:13;98863.63;;;3.97;100.00
64616;BME280;51027;42.162;24.754;2023-01-27T09:22:39;98864.88;;;3.83;100.00
64616;BME280;51027;42.162;24.754;2023-01-27T09:25:13;98854.09;;;3.96;100.00
64616;BME280;51027;42.162;24.754;2023-01-27T09:27:39;98861.53;;;4.12;100.00
64616;BME280;51027;42.162;24.754;2023-01-27T09:30:05;98841.16;;;3.93;100.00
64616;BME280;51027;42.162;24.754;2023-01-27T09:32:30;98849.56;;;4.36;100.00
64616;BME280;51027;42.162;24.754;2023-01-27T09:34:56;98845.41;;;4.28;100.00
64616;BME280;51027;42.162;24.754;2023-01-27T09:37:21;98835.44;;;4.44;100.00
64616;BME280;51027;42.162;24.754;2023-01-27T09:39:53;98832.44;;;4.27;100.00
64616;BME280;51027;42.162;24.754;2023-01-27T09:45:11;98817.03;;;4.18;100.00
64616;BME280;51027;42.162;24.754;2023-01-27T09:50:54;98814.16;;;3.96;100.00
64616;BME280;51027;42.162;24.754;2023-01-27T10:12:51;98818.81;;;3.85;100.00
64616;BME280;51027;42.162;24.754;2023-01-27T10:26:54;98796.78;;;4.27;100.00
64616;BME280;51027;42.162;24.754;2023-01-27T10:32:00;98789.03;;;4.26;100.00
64616;BME280;51027;42.162;24.754;2023-01-27T10:42:27;98772.31;;;4.33;100.00
64616;BME280;51027;42.162;24.754;2023-01-27T10:48:13;98772.38;;;4.31;100.00
64616;BME280;51027;42.162;24.754;2023-01-27T10:50:47;98746.94;;;4.10;100.00
64616;BME280;51027;42.162;24.754;2023-01-27T10:53:39;98740.94;;;4.07;100.00
64616;BME280;51027;42.162;24.754;2023-01-27T10:58:50;98747.06;;;4.35;100.00
64616;BME280;51027;42.162;24.754;2023-01-27T11:01:24;98743.66;;;4.62;100.00
64616;BME280;51027;42.162;24.754;2023-01-27T11:04:02;98742.69;;;4.65;100.00
64616;BME280;51027;42.162;24.754;2023-01-27T11:06:34;98730.28;;;4.73;100.00
64616;BME280;51027;42.162;24.754;2023-01-27T11:09:14;98735.81;;;4.62;100.00
64616;BME280;51027;42.162;24.754;2023-01-27T11:11:42;98727.59;;;4.47;100.00
64616;BME280;51027;42.162;24.754;2023-01-27T11:14:24;98720.81;;;4.69;100.00
64616;BME280;51027;42.162;24.754;2023-01-27T11:16:54;98721.81;;;4.93;100.00
64616;BME280;51027;42.162;24.754;2023-01-27T11:19:31;98703.25;;;5.54;100.00
64616;BME280;51027;42.162;24.754;2023-01-27T11:21:58;98710.06;;;5.83;100.00
64616;BME280;51027;42.162;24.754;2023-01-27T11:24:32;98712.00;;;5.53;100.00
64616;BME280;51027;42.162;24.754;2023-01-27T11:29:54;98709.91;;;4.84;100.00
64616;BME280;51027;42.162;24.754;2023-01-27T11:32:43;98724.13;;;5.02;100.00
64616;BME280;51027;42.162;24.754;2023-01-27T11:35:13;98691.75;;;4.81;100.00
64616;BME280;51027;42.162;24.754;2023-01-27T11:37:41;98722.66;;;5.20;100.00
64616;BME280;51027;42.162;24.754;2023-01-27T11:40:16;98729.94;;;4.84;100.00
64616;BME280;51027;42.162;24.754;2023-01-27T11:42:43;98722.06;;;4.85;100.00
64616;BME280;51027;42.162;24.754;2023-01-27T11:45:16;98710.94;;;4.80;100.00
64616;BME280;51027;42.162;24.754;2023-01-27T11:47:43;98727.44;;;5.07;100.00
64616;BME280;51027;42.162;24.754;2023-01-27T11:50:15;98719.31;;;5.16;100.00
64616;BME280;51027;42.162;24.754;2023-01-27T11:52:44;98699.25;;;4.92;100.00
64616;BME280;51027;42.162;24.754;2023-01-27T11:55:24;98699.50;;;5.11;100.00
64616;BME280;51027;42.162;24.754;2023-01-27T11:58:12;98713.41;;;5.10;100.00
64616;BME280;51027;42.162;24.754;2023-01-27T12:00:44;98704.59;;;4.87;100.00
64616;BME280;51027;42.162;24.754;2023-01-27T12:05:45;98711.22;;;4.98;100.00
64616;BME280;51027;42.162;24.754;2023-01-27T12:08:39;98695.63;;;4.68;100.00
64616;BME280;51027;42.162;24.754;2023-01-27T12:11:19;98707.38;;;4.83;100.00
64616;BME280;51027;42.162;24.754;2023-01-27T12:13:49;98718.59;;;4.85;100.00
64616;BME280;51027;42.162;24.754;2023-01-27T12:16:15;98686.00;;;4.72;100.00
64616;BME280;51027;42.162;24.754;2023-01-27T12:18:51;98707.13;;;4.90;100.00
64616;BME280;51027;42.162;24.754;2023-01-27T12:21:18;98691.59;;;4.86;100.00
64616;BME280;51027;42.162;24.754;2023-01-27T12:23:54;98690.72;;;5.13;100.00
64616;BME280;51027;42.162;24.754;2023-01-27T12:26:46;98695.50;;;4.99;100.00
64616;BME280;51027;42.162;24.754;2023-01-27T12:29:19;98691.66;;;5.11;100.00
64616;BME280;51027;42.162;24.754;2023-01-27T12:31:47;98678.22;;;4.97;100.00
64616;BME280;51027;42.162;24.754;2023-01-27T12:36:50;98684.97;;;5.29;100.00
64616;BME280;51027;42.162;24.754;2023-01-27T12:41:53;98676.63;;;5.44;100.00
64616;BME280;51027;42.162;24.754;2023-01-27T12:44:19;98680.59;;;5.54;100.00
64616;BME280;51027;42.162;24.754;2023-01-27T12:49:42;98678.59;;;5.86;100.00
64616;BME280;51027;42.162;24.754;2023-01-27T12:52:17;98675.59;;;5.73;100.00
64616;BME280;51027;42.162;24.754;2023-01-27T12:54:43;98679.25;;;5.67;100.00
64616;BME280;51027;42.162;24.754;2023-01-27T12:57:18;98680.38;;;5.35;100.00
64616;BME280;51027;42.162;24.754;2023-01-27T12:59:50;98687.31;;;5.36;100.00
64616;BME280;51027;42.162;24.754;2023-01-27T13:02:22;98682.50;;;5.24;100.00
64616;BME280;51027;42.162;24.754;2023-01-27T13:05:00;98689.06;;;5.11;100.00
64616;BME280;51027;42.162;24.754;2023-01-27T13:07:32;98680.56;;;5.04;100.00
64616;BME280;51027;42.162;24.754;2023-01-27T13:10:05;98678.94;;;5.27;100.00
64616;BME280;51027;42.162;24.754;2023-01-27T13:12:49;98675.91;;;5.14;100.00
64616;BME280;51027;42.162;24.754;2023-01-27T13:15:20;98668.78;;;5.44;100.00
64616;BME280;51027;42.162;24.754;2023-01-27T13:17:50;98667.25;;;5.62;100.00
64616;BME280;51027;42.162;24.754;2023-01-27T13:20:40;98671.06;;;5.53;100.00
64616;BME280;51027;42.162;24.754;2023-01-27T13:23:13;98676.97;;;5.33;100.00
64616;BME280;51027;42.162;24.754;2023-01-27T13:25:48;98679.66;;;5.32;100.00
64616;BME280;51027;42.162;24.754;2023-01-27T13:31:45;98676.44;;;5.24;100.00
64616;BME280;51027;42.162;24.754;2023-01-27T13:34:44;98682.22;;;5.33;100.00
64616;BME280;51027;42.162;24.754;2023-01-27T13:37:23;98688.03;;;5.15;100.00
64616;BME280;51027;42.162;24.754;2023-01-27T13:42:35;98686.03;;;5.23;100.00
64616;BME280;51027;42.162;24.754;2023-01-27T13:47:50;98672.38;;;5.15;100.00
64616;BME280;51027;42.162;24.754;2023-01-27T13:50:29;98668.25;;;5.08;100.00
64616;BME280;51027;42.162;24.754;2023-01-27T13:52:56;98679.31;;;5.16;100.00
64616;BME280;51027;42.162;24.754;2023-01-27T14:09:07;98691.75;;;5.08;100.00
64616;BME280;51027;42.162;24.754;2023-01-27T14:11:54;98715.28;;;5.06;100.00
64616;BME280;51027;42.162;24.754;2023-01-27T14:17:19;98716.69;;;4.90;100.00
64616;BME280;51027;42.162;24.754;2023-01-27T14:27:51;98707.13;;;4.90;100.00
64616;BME280;51027;42.162;24.754;2023-01-27T14:30:24;98706.28;;;4.88;100.00
64616;BME280;51027;42.162;24.754;2023-01-27T14:33:18;98701.91;;;4.90;100.00
64616;BME280;51027;42.162;24.754;2023-01-27T14:36:38;98709.34;;;5.03;100.00
64616;BME280;51027;42.162;24.754;2023-01-27T14:39:00;98706.84;;;4.98;100.00
64616;BME280;51027;42.162;24.754;2023-01-27T14:46:55;98705.72;;;5.07;100.00
64616;BME280;51027;42.162;24.754;2023-01-27T14:58:21;98719.09;;;4.96;100.00
64616;BME280;51027;42.162;24.754;2023-01-27T15:00:57;98700.50;;;4.80;100.00
64616;BME280;51027;42.162;24.754;2023-01-27T15:06:22;98708.19;;;5.11;100.00